Time;durP1;ratioP1;P1;durP2;ratioP2;P2;SDS_P1;SDS_P2;PMS_P1;PMS_P2;Temp;Humidity;BMP_temperature;BMP_pressure;BME280_temperature;BME280_humidity;BME280_pressure;Samples;Min_cycle;Max_cycle;Signal;HPM_P1;HPM_P2
2022/08/24 00:00:52;;;;;;;25.02;17.70;;;;;;;18.52;95.48;101537.66;5064284;28;20028;-78
2022/08/24 00:03:17;;;;;;;27.67;18.50;;;;;;;18.50;95.60;101540.53;5063559;28;20094;-78
2022/08/24 00:05:43;;;;;;;27.65;19.30;;;;;;;18.50;95.90;101540.53;5069796;28;20238;-78
2022/08/24 00:08:08;;;;;;;30.67;21.25;;;;;;;18.47;95.97;101532.66;5061601;28;20388;-78
2022/08/24 00:10:33;;;;;;;28.15;20.73;;;;;;;18.46;96.34;101541.88;5069129;28;20496;-78
2022/08/24 00:12:59;;;;;;;31.65;21.83;;;;;;;18.44;96.80;101543.00;5066236;28;20395;-78
2022/08/24 00:15:24;;;;;;;34.22;22.02;;;;;;;18.42;97.21;101543.16;5070966;28;20028;-78
2022/08/24 00:17:49;;;;;;;30.98;22.23;;;;;;;18.40;97.06;101541.59;5071452;28;20024;-78
2022/08/24 00:20:15;;;;;;;30.63;20.58;;;;;;;18.38;97.29;101547.19;5070095;28;20468;-78
2022/08/24 00:22:41;;;;;;;29.40;21.25;;;;;;;18.37;97.19;101550.88;5059677;28;20119;-78
2022/08/24 00:25:09;;;;;;;29.45;21.75;;;;;;;18.34;96.99;101554.75;5070252;28;20039;-78
2022/08/24 00:27:35;;;;;;;29.73;21.58;;;;;;;18.33;96.82;101550.34;5070318;28;20055;-78
2022/08/24 00:30:03;;;;;;;28.67;21.48;;;;;;;18.31;97.13;101549.59;5067897;28;20074;-78
2022/08/24 00:32:29;;;;;;;30.38;21.33;;;;;;;18.31;97.39;101549.59;5065028;28;20091;-78
2022/08/24 00:34:54;;;;;;;28.20;21.90;;;;;;;18.29;97.54;101558.94;5055893;28;20074;-78
2022/08/24 00:37:19;;;;;;;31.08;20.98;;;;;;;18.26;97.42;101560.09;5070940;28;20027;-78
2022/08/24 00:39:44;;;;;;;30.48;22.00;;;;;;;18.22;96.98;101560.53;5063878;28;20047;-78
2022/08/24 00:42:10;;;;;;;30.80;22.30;;;;;;;18.21;97.26;101561.53;5069138;28;20035;-78
2022/08/24 00:44:35;;;;;;;30.90;21.80;;;;;;;18.19;96.85;101560.81;5070407;28;20066;-78
2022/08/24 00:47:10;;;;;;;30.90;21.42;;;;;;;18.19;97.22;101560.81;5069362;28;20064;-78
2022/08/24 00:49:41;;;;;;;31.15;22.52;;;;;;;18.17;97.55;101563.69;5070440;28;20028;-78
2022/08/24 00:52:14;;;;;;;30.50;22.48;;;;;;;18.15;97.46;101558.38;5066672;28;20122;-78
2022/08/24 00:54:44;;;;;;;32.17;23.10;;;;;;;18.17;97.89;101559.09;5069669;28;20416;-78
2022/08/24 00:57:11;;;;;;;28.02;20.90;;;;;;;18.15;97.86;101561.09;5062706;28;20024;-78
2022/08/24 00:59:42;;;;;;;33.20;23.50;;;;;;;18.13;97.67;101554.09;5061528;28;20029;-78
2022/08/24 01:02:12;;;;;;;30.63;22.90;;;;;;;18.10;97.91;101555.25;5063835;28;20028;-77
2022/08/24 01:04:47;;;;;;;31.75;22.23;;;;;;;18.10;97.98;101570.72;5083142;28;20033;-77
2022/08/24 01:07:13;;;;;;;28.60;21.40;;;;;;;18.06;97.67;101561.97;5069047;28;20766;-77
2022/08/24 01:09:39;;;;;;;29.85;21.95;;;;;;;18.05;97.68;101562.09;5068112;28;20070;-77
2022/08/24 01:12:04;;;;;;;30.42;20.83;;;;;;;18.02;97.43;101560.53;5069222;28;20476;-77
2022/08/24 01:14:30;;;;;;;30.52;22.70;;;;;;;18.01;97.63;101556.13;5068737;28;20400;-77
2022/08/24 01:19:50;;;;;;;31.23;24.02;;;;;;;17.98;97.82;101557.25;5072840;28;20031;-77
2022/08/24 01:22:33;;;;;;;31.98;24.08;;;;;;;17.99;97.96;101555.38;5074470;28;20028;-77
2022/08/24 01:24:59;;;;;;;35.35;24.65;;;;;;;17.95;98.49;101562.09;5063411;28;20027;-77
2022/08/24 01:27:25;;;;;;;34.42;23.20;;;;;;;17.94;98.53;101563.97;5072033;28;20040;-77
2022/08/24 01:29:52;;;;;;;30.38;22.40;;;;;;;17.91;98.40;101557.97;5074384;28;20503;-77
2022/08/24 01:32:22;;;;;;;33.05;22.02;;;;;;;17.88;98.29;101558.22;5072889;28;20395;-77
2022/08/24 01:34:47;;;;;;;33.10;24.40;;;;;;;17.87;98.27;101561.94;5072922;28;20075;-77
2022/08/24 01:37:12;;;;;;;31.30;21.73;;;;;;;17.85;97.93;101558.50;5074382;28;20032;-77
2022/08/24 01:39:42;;;;;;;30.55;22.90;;;;;;;17.84;97.89;101548.63;5074278;28;20296;-77
2022/08/24 01:42:08;;;;;;;;;;;;;;;17.92;95.53;101551.50;5073440;28;20028;-77
2022/08/24 01:44:36;;;;;;;32.60;24.27;;;;;;;17.83;97.51;101545.03;5061349;28;20170;-77
2022/08/24 01:47:03;;;;;;;30.67;22.60;;;;;;;17.81;97.44;101536.19;5074230;28;20056;-77
2022/08/24 01:49:32;;;;;;;32.58;24.05;;;;;;;17.79;98.20;101539.03;5072670;28;20045;-77
2022/08/24 01:51:58;;;;;;;32.22;24.13;;;;;;;17.80;98.33;101540.78;5074984;28;20499;-77
2022/08/24 01:54:24;;;;;;;29.77;23.48;;;;;;;17.78;97.83;101542.75;5072356;28;20033;-77
2022/08/24 01:56:49;;;;;;;31.48;23.42;;;;;;;17.80;97.87;101548.94;5068071;28;20024;-77
2022/08/24 01:59:15;;;;;;;33.65;25.20;;;;;;;17.81;98.46;101547.91;5072345;28;20502;-77
2022/08/24 02:01:45;;;;;;;31.55;24.27;;;;;;;17.78;98.26;101540.03;5074472;28;20063;-77
2022/08/24 02:04:10;;;;;;;;;;;;;;;17.87;95.82;101545.63;5072866;28;20020;-77
2022/08/24 02:06:37;;;;;;;33.23;25.03;;;;;;;17.80;97.78;101550.78;5071660;28;19985;-77
2022/08/24 02:09:02;;;;;;;34.33;26.55;;;;;;;17.80;98.87;101545.34;5072274;28;20293;-77
2022/08/24 02:11:28;;;;;;;34.22;27.67;;;;;;;17.79;98.60;101544.47;5071496;28;20026;-77
2022/08/24 02:13:53;;;;;;;33.38;25.70;;;;;;;17.76;99.15;101544.78;5072735;28;20028;-77
2022/08/24 02:16:19;;;;;;;33.75;25.70;;;;;;;17.74;98.53;101546.75;5072850;28;20032;-77
2022/08/24 02:18:45;;;;;;;33.08;25.13;;;;;;;17.74;99.22;101546.75;5070471;28;20028;-77
2022/08/24 02:21:11;;;;;;;33.08;23.55;;;;;;;17.72;98.56;101546.06;5071839;28;20042;-77
2022/08/24 02:23:39;;;;;;;32.00;24.65;;;;;;;17.71;99.04;101548.91;5073331;28;20423;-77
2022/08/24 02:26:06;;;;;;;33.85;25.05;;;;;;;17.71;99.15;101548.91;5072577;28;20028;-77
2022/08/24 02:28:31;;;;;;;32.17;25.63;;;;;;;17.68;98.92;101555.50;5068760;28;20020;-77
2022/08/24 02:30:57;;;;;;;32.65;25.55;;;;;;;17.66;98.87;101560.22;5057419;28;20079;-77
2022/08/24 02:33:22;;;;;;;33.00;25.27;;;;;;;17.63;98.88;101561.34;5072510;28;20060;-77
2022/08/24 02:35:49;;;;;;;34.78;25.75;;;;;;;17.60;98.73;101560.75;5064485;28;20489;-77
2022/08/24 02:38:14;;;;;;;36.08;26.52;;;;;;;17.56;98.96;101565.63;5062535;28;20055;-77
2022/08/24 02:40:39;;;;;;;33.35;24.23;;;;;;;17.53;98.25;101565.91;5065599;28;20028;-77
2022/08/24 02:43:05;;;;;;;33.72;25.90;;;;;;;17.53;98.88;101556.91;5071967;28;20039;-77
2022/08/24 02:45:31;;;;;;;33.65;26.63;;;;;;;17.51;99.21;101562.50;5070648;28;20037;-77
2022/08/24 02:47:57;;;;;;;34.70;26.90;;;;;;;17.49;99.31;101561.75;5066033;28;20549;-77
2022/08/24 02:50:25;;;;;;;34.42;24.80;;;;;;;17.46;99.38;101565.59;5072388;28;20025;-77
2022/08/24 02:52:51;;;;;;;33.50;25.45;;;;;;;17.42;99.40;101563.31;5072608;28;20020;-77
2022/08/24 02:55:17;;;;;;;34.83;24.65;;;;;;;17.40;99.30;101560.75;5072187;28;20149;-77
2022/08/24 02:57:43;;;;;;;32.63;24.27;;;;;;;17.39;99.06;101567.16;5071581;28;20028;-77
2022/08/24 03:00:11;;;;;;;31.85;24.10;;;;;;;17.37;99.22;101561.03;5070845;28;20028;-77
2022/08/24 03:02:37;;;;;;;34.67;24.55;;;;;;;17.36;98.53;101564.72;5069284;28;20029;-77
2022/08/24 03:05:03;;;;;;;33.67;25.02;;;;;;;17.37;98.69;101562.91;5070243;28;20503;-77
2022/08/24 03:07:28;;;;;;;37.05;24.80;;;;;;;17.36;98.74;101556.56;5058678;28;20530;-77
2022/08/24 03:09:53;;;;;;;32.03;24.33;;;;;;;17.35;98.23;101557.59;5069288;28;20036;-77
2022/08/24 03:12:18;;;;;;;32.88;25.10;;;;;;;17.33;98.53;101562.28;5058705;28;20054;-77
2022/08/24 03:14:44;;;;;;;32.05;24.33;;;;;;;17.31;98.51;101558.88;5071568;28;20032;-77
2022/08/24 03:17:09;;;;;;;31.70;23.85;;;;;;;17.29;98.40;101555.41;5073222;28;20028;-77
2022/08/24 03:19:35;;;;;;;33.65;24.75;;;;;;;17.27;99.33;101554.72;5069034;28;20062;-77
2022/08/24 03:22:00;;;;;;;31.77;22.42;;;;;;;17.26;99.12;101551.16;5072255;28;20077;-77
2022/08/24 03:24:26;;;;;;;29.48;19.95;;;;;;;17.24;98.76;101555.00;5071030;28;20035;-77
2022/08/24 03:26:51;;;;;;;29.13;19.95;;;;;;;17.22;98.70;101559.69;5069357;28;20581;-77
2022/08/24 03:29:16;;;;;;;28.42;20.02;;;;;;;17.21;98.63;101555.28;5062313;28;20109;-77
2022/08/24 03:31:42;;;;;;;27.63;19.90;;;;;;;17.19;98.28;101551.81;5068753;28;20503;-77
2022/08/24 03:34:07;;;;;;;29.98;21.92;;;;;;;17.16;98.61;101550.25;5070828;28;20048;-77
2022/08/24 03:36:33;;;;;;;30.13;20.25;;;;;;;17.14;98.30;101552.22;5063244;28;20021;-77
2022/08/24 03:38:58;;;;;;;28.13;19.63;;;;;;;17.10;98.43;101548.06;5059604;28;20075;-77
2022/08/24 03:41:23;;;;;;;30.77;22.95;;;;;;;17.07;98.51;101546.50;5072198;28;20038;-77
2022/08/24 03:43:49;;;;;;;29.83;22.27;;;;;;;17.05;98.65;101540.34;5069469;28;20111;-77
2022/08/24 03:46:25;;;;;;;31.25;22.65;;;;;;;17.05;98.75;101547.66;5071428;28;20389;-77
2022/08/24 03:48:51;;;;;;;30.52;22.73;;;;;;;17.03;98.84;101545.06;5066301;28;20032;-77
2022/08/24 03:51:19;;;;;;;30.75;22.08;;;;;;;17.00;99.66;101542.63;5060473;28;20391;-77
2022/08/24 03:53:44;;;;;;;33.13;24.65;;;;;;;16.98;99.58;101549.19;5056164;28;20036;-77
2022/08/24 03:56:10;;;;;;;32.97;24.35;;;;;;;16.96;99.33;101556.63;5070886;28;20032;-77
2022/08/24 03:58:37;;;;;;;32.90;23.42;;;;;;;16.93;99.57;101555.88;5070404;28;20078;-77
2022/08/24 04:01:04;;;;;;;31.95;22.42;;;;;;;16.93;99.40;101553.16;5070740;28;20495;-77
2022/08/24 04:03:34;;;;;;;31.95;21.38;;;;;;;16.92;99.30;101556.88;5070201;28;20496;-77
2022/08/24 04:06:00;;;;;;;31.15;21.98;;;;;;;16.91;99.45;101560.59;5070238;28;20016;-77
2022/08/24 04:08:25;;;;;;;31.45;21.92;;;;;;;16.92;99.53;101565.00;5069459;28;20026;-77
2022/08/24 04:10:50;;;;;;;33.47;22.00;;;;;;;16.92;99.84;101561.44;5069964;28;20450;-77
2022/08/24 04:13:16;;;;;;;30.17;21.15;;;;;;;16.92;99.36;101556.03;5054347;28;20028;-77
2022/08/24 04:15:42;;;;;;;28.92;19.33;;;;;;;16.89;98.89;101564.44;5058467;28;20075;-77
2022/08/24 04:18:07;;;;;;;28.02;19.65;;;;;;;16.86;98.50;101564.69;5070319;28;20480;-77
2022/08/24 04:20:42;;;;;;;27.25;18.52;;;;;;;16.85;98.27;101566.56;5069720;28;20024;-77
2022/08/24 04:23:08;;;;;;;29.40;19.58;;;;;;;16.83;98.41;101563.09;5069799;28;20020;-77
2022/08/24 04:25:42;;;;;;;28.85;19.67;;;;;;;16.82;98.49;101560.53;5064921;28;20058;-77
2022/08/24 04:28:08;;;;;;;30.33;19.70;;;;;;;16.78;97.94;101565.38;5068833;28;20039;-77
2022/08/24 04:30:33;;;;;;;28.33;19.27;;;;;;;16.77;98.39;101564.50;5069285;28;20424;-77
2022/08/24 04:32:58;;;;;;;27.80;19.70;;;;;;;16.76;98.68;101562.78;5063964;28;20079;-77
2022/08/24 04:35:24;;;;;;;29.05;20.17;;;;;;;16.74;98.91;101570.19;5059145;28;20028;-77
2022/08/24 04:37:49;;;;;;;29.80;20.58;;;;;;;16.73;98.85;101568.47;5070175;28;20075;-77
2022/08/24 04:40:14;;;;;;;26.98;18.17;;;;;;;16.72;99.13;101566.78;5069908;28;20028;-77
2022/08/24 04:42:39;;;;;;;30.05;18.98;;;;;;;16.71;99.02;101566.91;5065226;28;20036;-77
2022/08/24 04:45:05;;;;;;;27.73;18.23;;;;;;;16.70;99.03;101573.31;5070952;28;20028;-77
2022/08/24 04:47:31;;;;;;;27.40;18.50;;;;;;;16.68;98.98;101570.75;5069553;28;20029;-77
2022/08/24 04:49:56;;;;;;;29.70;20.30;;;;;;;16.68;99.21;101570.75;5069202;28;20052;-77
2022/08/24 04:52:21;;;;;;;29.30;19.67;;;;;;;16.67;99.31;101565.44;5071549;28;20448;-77
2022/08/24 04:54:46;;;;;;;27.08;19.42;;;;;;;16.67;99.29;101571.72;5078208;28;20033;-77
2022/08/24 04:57:12;;;;;;;29.17;18.75;;;;;;;16.66;99.21;101572.75;5074015;28;20028;-77
2022/08/24 04:59:38;;;;;;;27.17;18.75;;;;;;;16.66;99.37;101583.59;5077120;28;20032;-77
2022/08/24 05:02:03;;;;;;;32.10;19.13;;;;;;;16.66;98.68;101583.59;5074726;28;20099;-77
2022/08/24 05:04:28;;;;;;;31.15;18.40;;;;;;;16.68;98.83;101572.59;5076561;28;20036;-77
2022/08/24 05:06:54;;;;;;;29.23;19.42;;;;;;;16.69;99.00;101577.03;5076433;28;20111;-77
2022/08/24 05:09:19;;;;;;;30.63;19.90;;;;;;;16.70;99.48;101579.59;5070974;28;20106;-77
2022/08/24 05:11:46;;;;;;;34.17;21.70;;;;;;;16.72;99.92;101572.19;5076425;28;20027;-77
2022/08/24 05:14:12;;;;;;;29.67;19.60;;;;;;;16.71;99.09;101578.63;5073970;28;20059;-77
2022/08/24 05:16:37;;;;;;;29.02;20.00;;;;;;;16.75;100.00;101582.78;5071714;28;20020;-77
2022/08/24 05:19:05;;;;;;;33.47;20.75;;;;;;;16.77;100.00;101583.50;5076070;28;20024;-77
2022/08/24 05:21:31;;;;;;;33.50;21.00;;;;;;;16.78;100.00;101582.50;5074507;28;20043;-77
2022/08/24 05:23:56;;;;;;;31.30;19.65;;;;;;;16.82;100.00;101583.09;5077258;28;20028;-77
2022/08/24 05:26:24;;;;;;;29.23;21.33;;;;;;;16.83;100.00;101592.09;5064063;28;20445;-77
2022/08/24 05:28:53;;;;;;;28.23;20.10;;;;;;;16.83;100.00;101587.53;5072089;28;20034;-77
2022/08/24 05:31:21;;;;;;;29.80;20.17;;;;;;;16.86;100.00;101584.53;5070868;28;20365;-77
2022/08/24 05:33:47;;;;;;;28.75;21.08;;;;;;;16.92;100.00;101594.03;5073785;28;20068;-77
2022/08/24 05:36:25;;;;;;;29.80;20.63;;;;;;;16.97;100.00;101599.06;5077693;28;20028;-77
2022/08/24 05:38:53;;;;;;;32.22;21.23;;;;;;;16.99;100.00;101597.09;5078235;28;20059;-77
2022/08/24 05:41:20;;;;;;;29.85;20.92;;;;;;;17.03;100.00;101599.38;5077196;28;20052;-77
2022/08/24 05:43:46;;;;;;;31.25;20.77;;;;;;;17.05;100.00;101602.81;5076093;28;20025;-77
2022/08/24 05:46:12;;;;;;;33.60;21.50;;;;;;;17.10;100.00;101596.97;5076303;28;20043;-77
2022/08/24 05:48:37;;;;;;;38.00;24.80;;;;;;;17.15;100.00;101599.28;5069754;28;20132;-77
2022/08/24 05:51:04;;;;;;;33.90;23.50;;;;;;;17.21;100.00;101598.72;5067855;28;20211;-77
2022/08/24 05:53:30;;;;;;;36.05;24.95;;;;;;;17.25;100.00;101597.47;5076889;28;20476;-77
2022/08/24 05:55:55;;;;;;;33.60;26.20;;;;;;;17.31;100.00;101594.19;5077681;28;20024;-77
2022/08/24 05:58:21;;;;;;;34.47;25.10;;;;;;;17.37;100.00;101592.78;5075648;28;20511;-77
2022/08/24 06:00:48;;;;;;;37.15;28.00;;;;;;;17.46;100.00;101592.78;5076928;28;20032;-77
2022/08/24 06:03:14;;;;;;;38.78;29.25;;;;;;;17.55;100.00;101595.69;5075464;28;20103;-77
2022/08/24 06:05:40;;;;;;;41.33;29.63;;;;;;;17.63;100.00;101598.56;5068396;28;20107;-77
2022/08/24 06:08:06;;;;;;;39.28;30.85;;;;;;;17.69;100.00;101600.72;5072010;28;20025;-77
2022/08/24 06:10:32;;;;;;;38.00;30.55;;;;;;;17.77;100.00;101600.00;5070882;28;20035;-77
2022/08/24 06:12:57;;;;;;;41.28;32.95;;;;;;;17.86;100.00;101604.56;5069926;28;20028;-77
2022/08/24 06:15:22;;;;;;;40.60;32.05;;;;;;;17.92;100.00;101614.94;5072627;28;20539;-77
2022/08/24 06:17:48;;;;;;;43.35;32.60;;;;;;;17.98;100.00;101611.66;5071647;28;20396;-77
2022/08/24 06:20:14;;;;;;;38.60;32.35;;;;;;;18.05;100.00;101616.50;5070275;28;20032;-76
2022/08/24 06:22:43;;;;;;;42.40;34.00;;;;;;;18.12;100.00;101618.50;5066871;28;20107;-76
2022/08/24 06:27:52;;;;;;;40.22;33.80;;;;;;;18.25;100.00;101617.38;5066439;28;20043;-77
2022/08/24 06:30:17;;;;;;;40.83;33.25;;;;;;;18.27;100.00;101620.78;5056212;28;20032;-73
2022/08/24 06:32:42;;;;;;;25.10;15.10;;;;;;;18.16;92.64;101622.66;5071637;28;20029;-73
2022/08/24 06:35:08;;;;;;;21.13;10.55;;;;;;;18.16;89.21;101624.53;5071219;28;20032;-74
2022/08/24 06:37:34;;;;;;;20.92;10.07;;;;;;;18.16;87.65;101622.66;5066525;28;20143;-73
2022/08/24 06:39:59;;;;;;;27.67;16.02;;;;;;;18.22;92.41;101625.81;5071682;28;20086;-74
2022/08/24 06:42:25;;;;;;;23.17;14.88;;;;;;;18.25;92.86;101625.53;5073449;28;20139;-74
2022/08/24 06:44:51;;;;;;;22.38;12.50;;;;;;;18.24;86.21;101631.97;5073958;28;20039;-73
2022/08/24 06:47:17;;;;;;;25.52;13.75;;;;;;;18.27;87.23;101635.28;5072230;28;20480;-74
2022/08/24 06:49:42;;;;;;;26.58;15.23;;;;;;;18.30;85.01;101631.41;5071571;28;20035;-74
2022/08/24 06:52:10;;;;;;;23.05;12.77;;;;;;;18.34;84.78;101638.28;5071777;28;20063;-74
2022/08/24 06:54:36;;;;;;;24.83;15.00;;;;;;;18.37;83.97;101635.25;5067648;28;20083;-73
2022/08/24 06:57:01;;;;;;;22.70;11.60;;;;;;;18.39;82.91;101633.28;5066698;28;20016;-74
2022/08/24 06:59:28;;;;;;;25.20;14.60;;;;;;;18.44;84.22;101636.41;5073923;28;20032;-73
2022/08/24 07:01:55;;;;;;;23.77;12.82;;;;;;;18.46;81.81;101639.84;5071633;28;20029;-74
2022/08/24 07:04:22;;;;;;;28.73;19.73;;;;;;;18.57;85.48;101640.69;5071403;28;20027;-74
2022/08/24 07:06:47;;;;;;;21.58;9.70;;;;;;;18.56;80.60;101645.25;5065741;28;20035;-74
2022/08/24 07:09:13;;;;;;;31.38;23.48;;;;;;;18.68;89.83;101644.13;5053536;28;20103;-75
2022/08/24 07:11:38;;;;;;;24.27;13.98;;;;;;;18.65;81.20;101644.41;5066546;28;20461;-74
2022/08/24 07:14:04;;;;;;;25.52;11.77;;;;;;;18.73;85.36;101640.94;5072420;28;20067;-74
2022/08/24 07:16:30;;;;;;;22.80;11.90;;;;;;;18.74;79.90;101648.13;5071834;28;20405;-74
2022/08/24 07:18:55;;;;;;;21.40;11.23;;;;;;;18.80;80.25;101652.97;5070004;28;20036;-74
2022/08/24 07:21:21;;;;;;;22.35;11.50;;;;;;;18.86;80.52;101655.13;5068177;28;20465;-75
2022/08/24 07:23:52;;;;;;;20.58;10.25;;;;;;;18.90;78.75;101652.09;5068257;28;20024;-75
2022/08/24 07:26:21;;;;;;;27.02;14.48;;;;;;;18.99;79.46;101651.22;5064751;28;20123;-74
2022/08/24 07:28:48;;;;;;;21.92;10.80;;;;;;;19.03;78.63;101649.91;5065674;28;20073;-74
2022/08/24 07:31:14;;;;;;;22.17;9.63;;;;;;;19.07;77.25;101653.22;5063615;28;20028;-75
2022/08/24 07:33:39;;;;;;;27.75;13.60;;;;;;;19.12;77.20;101654.50;5071627;28;20093;-76
2022/08/24 07:36:04;;;;;;;23.38;10.80;;;;;;;19.18;77.21;101656.63;5070604;28;20048;-74
2022/08/24 07:38:30;;;;;;;21.95;10.55;;;;;;;19.24;77.00;101647.00;5071349;28;20048;-74
2022/08/24 07:40:55;;;;;;;32.33;20.25;;;;;;;19.48;86.36;101648.31;5071085;28;20101;-74
2022/08/24 07:43:20;;;;;;;22.77;11.50;;;;;;;19.42;78.28;101641.59;5072255;28;20024;-74
2022/08/24 07:45:48;;;;;;;21.13;10.68;;;;;;;19.48;77.57;101640.13;5068039;28;20029;-74
2022/08/24 07:48:13;;;;;;;31.52;20.13;;;;;;;19.73;88.16;101638.53;5069527;28;20032;-76
2022/08/24 07:50:39;;;;;;;22.10;11.68;;;;;;;19.72;78.73;101645.00;5072493;28;20066;-75
2022/08/24 07:53:04;;;;;;;28.17;12.52;;;;;;;19.83;80.02;101650.28;5072612;28;20502;-74
2022/08/24 07:55:29;;;;;;;21.23;10.20;;;;;;;19.85;78.26;101648.22;5062558;28;20124;-74
2022/08/24 07:57:54;;;;;;;23.40;13.60;;;;;;;19.99;82.83;101646.84;5064869;28;20032;-75
2022/08/24 08:00:20;;;;;;;19.33;8.75;;;;;;;19.98;77.63;101656.03;5069872;28;20426;-74
2022/08/24 08:02:46;;;;;;;18.88;8.00;;;;;;;20.01;76.75;101646.69;5070670;28;20028;-74
2022/08/24 08:05:18;;;;;;;24.48;11.77;;;;;;;20.06;76.91;101650.69;5068708;28;20369;-74
2022/08/24 08:07:44;;;;;;;21.05;10.65;;;;;;;20.16;78.04;101647.88;5069712;28;20036;-74
2022/08/24 08:10:11;;;;;;;21.95;9.75;;;;;;;20.22;77.01;101658.19;5068659;28;20379;-75
2022/08/24 08:12:37;;;;;;;21.13;10.00;;;;;;;20.25;77.27;101652.41;5068639;28;20086;-75
2022/08/24 08:15:04;;;;;;;22.25;11.07;;;;;;;20.29;77.03;101657.53;5070631;28;20056;-76
2022/08/24 08:17:29;;;;;;;22.55;9.10;;;;;;;20.32;77.29;101660.81;5067409;28;20426;-74
2022/08/24 08:19:54;;;;;;;19.83;8.50;;;;;;;20.37;76.76;101653.00;5072116;28;20054;-75
2022/08/24 08:25:06;;;;;;;17.38;7.40;;;;;;;20.49;76.37;101660.97;5071045;28;20043;-73
2022/08/24 08:27:33;;;;;;;18.98;8.25;;;;;;;20.63;76.24;101659.53;5068344;28;20111;-74
2022/08/24 08:29:58;;;;;;;18.67;6.75;;;;;;;20.68;76.41;101665.41;5070064;28;20029;-74
2022/08/24 08:32:23;;;;;;;18.65;7.50;;;;;;;20.72;76.70;101655.91;5064595;28;20428;-74
2022/08/24 08:34:49;;;;;;;20.23;7.45;;;;;;;20.76;77.30;101652.69;5063810;28;20053;-74
2022/08/24 08:37:14;;;;;;;16.00;6.35;;;;;;;20.83;76.76;101657.50;5070378;28;20387;-74
2022/08/24 08:39:40;;;;;;;17.33;7.15;;;;;;;20.88;77.05;101656.00;5070600;28;20111;-74
2022/08/24 08:42:27;;;;;;;18.00;7.15;;;;;;;20.93;77.76;101659.09;5057817;28;20534;-74
2022/08/24 08:45:17;;;;;;;16.38;6.72;;;;;;;21.00;78.40;101653.84;5071067;28;20043;-74
2022/08/24 08:48:00;;;;;;;15.40;6.10;;;;;;;21.09;78.85;101660.22;5068167;28;20032;-74
2022/08/24 08:51:01;;;;;;;17.40;6.35;;;;;;;21.16;78.95;101664.03;5069873;28;20036;-74
2022/08/24 08:53:32;;;;;;;16.73;6.60;;;;;;;21.19;78.45;101660.97;5071827;28;20033;-74
2022/08/24 08:56:12;;;;;;;15.57;5.93;;;;;;;21.26;78.73;101664.75;5071467;28;20032;-74
2022/08/24 08:58:55;;;;;;;14.45;5.75;;;;;;;21.33;78.58;101658.63;5070920;28;20465;-74
2022/08/24 09:01:44;;;;;;;18.27;7.30;;;;;;;21.40;78.20;101656.94;5069622;28;20028;-74
2022/08/24 09:04:28;;;;;;;12.43;5.18;;;;;;;21.44;78.14;101661.09;5070937;28;20032;-74
2022/08/24 09:07:18;;;;;;;14.23;5.28;;;;;;;21.50;78.27;101660.41;5071771;28;20025;-74
2022/08/24 09:10:05;;;;;;;12.00;4.88;;;;;;;21.54;77.93;101660.97;5071085;28;20028;-74
2022/08/24 09:12:56;;;;;;;14.68;5.28;;;;;;;21.59;78.12;101659.44;5063957;28;20387;-74
2022/08/24 09:15:46;;;;;;;12.85;5.03;;;;;;;21.65;78.14;101660.66;5070177;28;20029;-74
2022/08/24 09:18:19;;;;;;;12.32;4.90;;;;;;;21.68;77.39;101662.22;5069482;28;20028;-74
2022/08/24 09:21:14;;;;;;;14.82;5.40;;;;;;;21.72;75.78;101669.06;5052280;28;20028;-74
2022/08/24 09:23:50;;;;;;;12.38;5.22;;;;;;;21.72;76.00;101666.34;5059617;28;20032;-75
2022/08/24 09:26:29;;;;;;;13.23;5.25;;;;;;;21.73;76.44;101668.03;5071296;28;20040;-75
2022/08/24 09:29:22;;;;;;;11.85;5.10;;;;;;;21.79;77.43;101667.41;5051681;28;20028;-75
2022/08/24 09:32:02;;;;;;;13.23;5.30;;;;;;;21.83;74.68;101657.81;5064285;28;20044;-75
2022/08/24 09:34:42;;;;;;;12.25;5.30;;;;;;;21.93;75.29;101664.00;5069052;28;20067;-75
2022/08/24 09:37:27;;;;;;;11.80;5.05;;;;;;;22.12;74.76;101661.97;5069520;28;20176;-75
2022/08/24 09:40:05;;;;;;;10.18;4.28;;;;;;;22.11;75.69;101663.00;5062368;28;20024;-75
2022/08/24 09:43:11;;;;;;;14.68;4.72;;;;;;;22.15;76.36;101667.09;5073652;28;20033;-75
2022/08/24 09:46:19;;;;;;;15.32;4.90;;;;;;;22.16;75.91;101664.19;5060986;28;20127;-75
2022/08/24 09:49:14;;;;;;;10.88;4.43;;;;;;;22.19;76.04;101665.75;5069137;28;20032;-75
2022/08/24 09:51:51;;;;;;;12.23;4.90;;;;;;;22.32;74.47;101666.13;5070192;28;20031;-75
2022/08/24 09:54:28;;;;;;;14.57;5.38;;;;;;;22.48;74.33;101669.91;5065071;28;20040;-74
2022/08/24 09:57:32;;;;;;;12.80;4.50;;;;;;;22.47;74.77;101663.56;5066990;28;20119;-74
2022/08/24 10:00:12;;;;;;;12.32;4.30;;;;;;;22.48;74.37;101667.19;5048577;28;20082;-74
2022/08/24 10:03:05;;;;;;;9.77;4.25;;;;;;;22.46;71.61;101664.63;5069032;28;20021;-74
2022/08/24 10:06:08;;;;;;;11.60;4.15;;;;;;;22.57;72.99;101668.03;5065854;28;20032;-74
2022/08/24 10:08:52;;;;;;;9.27;4.00;;;;;;;22.54;71.41;101666.50;5067065;28;20048;-74
2022/08/24 10:11:29;;;;;;;7.40;3.50;;;;;;;22.55;70.83;101660.00;5065327;28;20023;-74
2022/08/24 10:14:08;;;;;;;10.13;4.13;;;;;;;22.63;71.78;101659.13;5072084;28;20052;-74
2022/08/24 10:17:18;;;;;;;11.45;4.03;;;;;;;22.62;73.11;101658.28;5071566;28;20074;-74
2022/08/24 10:19:58;;;;;;;9.45;3.90;;;;;;;22.59;71.49;101646.78;5030361;28;20144;-75
2022/08/24 10:23:21;;;;;;;10.93;4.20;;;;;;;22.65;71.80;101649.72;5026617;28;20135;-75
2022/08/24 10:26:08;;;;;;;8.88;4.18;;;;;;;22.72;72.29;101649.00;4971296;28;20042;-74
2022/08/24 10:28:39;;;;;;;12.98;4.93;;;;;;;22.81;72.30;101642.47;4968674;28;20137;-74
2022/08/24 10:31:10;;;;;;;9.27;3.95;;;;;;;22.89;71.42;101650.69;4971644;28;20042;-74
2022/08/24 10:33:54;;;;;;;8.55;3.72;;;;;;;22.86;72.48;101645.56;4970315;28;20047;-74
2022/08/24 10:36:35;;;;;;;10.32;4.05;;;;;;;22.83;71.60;101651.41;4971200;28;20541;-74
2022/08/24 10:39:48;;;;;;;11.80;4.72;;;;;;;22.90;71.96;101646.06;4966742;28;20126;-74
2022/08/24 10:45:37;;;;;;;11.05;3.97;;;;;;;22.86;70.50;101645.56;4968426;28;20041;-74
2022/08/24 10:48:29;;;;;;;8.77;3.50;;;;;;;22.97;70.59;101642.47;4969689;28;20137;-75
2022/08/24 10:51:15;;;;;;;10.75;3.70;;;;;;;23.00;70.12;101643.97;4969735;28;20081;-75
2022/08/24 10:53:46;;;;;;;9.73;3.80;;;;;;;23.17;69.46;101642.94;4964863;28;20768;-75
2022/08/24 10:56:18;;;;;;;10.43;4.28;;;;;;;23.21;68.16;101641.56;5012764;28;20041;-75
2022/08/24 10:59:06;;;;;;;10.90;3.92;;;;;;;23.21;69.20;101643.44;5071432;28;20996;-74
2022/08/24 11:01:36;;;;;;;11.23;4.43;;;;;;;23.16;69.25;101637.63;5069915;28;20040;-74
2022/08/24 11:04:05;;;;;;;10.73;3.97;;;;;;;23.09;68.88;101629.22;5071804;28;20032;-72
2022/08/24 11:06:35;;;;;;;7.93;3.35;;;;;;;23.12;68.39;101625.28;5071467;28;20036;-74
2022/08/24 11:09:08;;;;;;;9.90;4.40;;;;;;;23.16;68.84;101629.41;5069751;28;20529;-74
2022/08/24 11:11:38;;;;;;;9.15;4.00;;;;;;;23.13;69.84;101635.25;5063348;28;20033;-74
2022/08/24 11:14:09;;;;;;;9.32;4.05;;;;;;;23.10;69.00;101624.59;5065683;28;20040;-73
2022/08/24 11:16:38;;;;;;;8.07;3.78;;;;;;;23.04;69.46;101627.00;5064681;28;20029;-74
2022/08/24 11:19:09;;;;;;;9.15;3.70;;;;;;;23.10;69.64;101624.59;5071759;28;20036;-75
2022/08/24 11:21:46;;;;;;;7.35;3.58;;;;;;;23.08;69.93;101618.44;5071343;28;20494;-75
2022/08/24 11:24:25;;;;;;;7.53;3.55;;;;;;;23.11;70.01;101618.97;5069032;28;20041;-75
2022/08/24 11:27:01;;;;;;;11.40;4.28;;;;;;;23.27;68.63;101620.78;5067493;28;20036;-75
2022/08/24 11:29:48;;;;;;;7.35;3.60;;;;;;;23.28;68.44;101614.28;5066839;28;20024;-74
2022/08/24 11:32:26;;;;;;;9.20;3.70;;;;;;;23.28;69.51;101614.28;5052039;28;20049;-74
2022/08/24 11:34:52;;;;;;;8.07;3.60;;;;;;;23.25;68.87;101606.41;5067673;28;20174;-73
2022/08/24 11:37:22;;;;;;;8.65;3.40;;;;;;;23.26;68.98;101608.09;5069960;28;20115;-73